createdAt,value
2022-12-02T00:00:34.898Z,23.37
2022-12-02T00:03:03.366Z,25.10
2022-12-02T00:05:34.703Z,23.30
2022-12-02T00:08:15.582Z,25.07
2022-12-02T00:10:45.883Z,24.23
2022-12-02T00:13:25.556Z,24.33
2022-12-02T00:15:57.804Z,23.60
2022-12-02T00:18:27.387Z,23.77
2022-12-02T00:20:56.058Z,23.63
2022-12-02T00:23:25.324Z,22.87
2022-12-02T00:25:56.071Z,23.77
2022-12-02T00:28:24.572Z,24.00
2022-12-02T00:30:52.982Z,22.50
2022-12-02T00:33:21.435Z,21.97
2022-12-02T00:35:49.796Z,23.50
2022-12-02T00:38:18.683Z,22.57
2022-12-02T00:40:47.304Z,22.13
2022-12-02T00:43:37.341Z,21.60
2022-12-02T00:46:24.758Z,21.90
2022-12-02T00:48:53.110Z,21.07
2022-12-02T00:51:21.727Z,21.10
2022-12-02T00:53:50.813Z,21.43
2022-12-02T00:56:19.795Z,21.83
2022-12-02T00:58:49.507Z,20.80
2022-12-02T01:01:18.463Z,21.57
2022-12-02T01:03:47.058Z,22.50
2022-12-02T01:06:17.675Z,22.40
2022-12-02T01:08:46.381Z,22.33
2022-12-02T01:11:18.212Z,21.70
2022-12-02T01:13:49.350Z,20.77
2022-12-02T01:16:19.407Z,21.63
2022-12-02T01:18:47.950Z,22.63
2022-12-02T01:21:16.578Z,21.37
2022-12-02T01:23:46.622Z,23.40
2022-12-02T01:26:17.538Z,23.13
2022-12-02T01:28:46.097Z,22.90
2022-12-02T01:31:16.199Z,21.97
2022-12-02T01:33:46.238Z,21.87
2022-12-02T01:36:15.229Z,23.17
2022-12-02T01:38:43.665Z,21.93
2022-12-02T01:41:15.188Z,21.23
2022-12-02T01:43:43.834Z,22.27
2022-12-02T01:46:13.184Z,21.83
2022-12-02T01:48:41.741Z,22.13
2022-12-02T01:51:11.670Z,20.63
2022-12-02T01:53:41.821Z,21.47
2022-12-02T01:56:12.200Z,22.93
2022-12-02T01:58:41.061Z,21.17
2022-12-02T02:01:24.369Z,20.53
2022-12-02T02:03:53.464Z,20.87
2022-12-02T02:06:26.805Z,20.30
2022-12-02T02:08:56.102Z,21.30
2022-12-02T02:11:26.772Z,20.90
2022-12-02T02:14:03.084Z,20.73
2022-12-02T02:16:33.168Z,21.10
2022-12-02T02:19:03.218Z,21.37
2022-12-02T02:21:36.163Z,20.27
2022-12-02T02:24:06.710Z,20.70
2022-12-02T02:26:35.217Z,21.73
2022-12-02T02:29:03.866Z,20.73
2022-12-02T02:31:32.409Z,21.47
2022-12-02T02:34:01.243Z,21.17
2022-12-02T02:36:29.703Z,19.97
2022-12-02T02:38:58.809Z,20.17
2022-12-02T02:41:30.387Z,20.17
2022-12-02T02:43:58.892Z,19.60
2022-12-02T02:46:33.490Z,20.53
2022-12-02T02:49:02.289Z,18.83
2022-12-02T02:51:31.060Z,19.67
2022-12-02T02:53:59.493Z,20.27
2022-12-02T02:56:31.025Z,18.63
2022-12-02T02:58:59.389Z,19.83
2022-12-02T03:01:31.747Z,19.13
2022-12-02T03:04:03.888Z,19.50
2022-12-02T03:06:35.088Z,19.37
2022-12-02T03:09:05.163Z,20.43
2022-12-02T03:11:39.048Z,19.20
2022-12-02T03:14:12.748Z,19.57
2022-12-02T03:16:44.681Z,19.03
2022-12-02T03:19:13.610Z,20.27
2022-12-02T03:21:42.452Z,18.10
2022-12-02T03:24:11.170Z,18.97
2022-12-02T03:26:41.439Z,18.47
2022-12-02T03:29:12.638Z,16.93
2022-12-02T03:31:41.188Z,18.20
2022-12-02T03:34:10.871Z,17.67
2022-12-02T03:36:40.245Z,17.43
2022-12-02T03:39:10.143Z,19.00
2022-12-02T03:41:40.531Z,19.03
2022-12-02T03:44:09.280Z,17.87
2022-12-02T03:46:38.086Z,18.73
2022-12-02T03:49:06.403Z,16.83
2022-12-02T03:51:34.955Z,17.77
2022-12-02T03:54:03.460Z,17.27
2022-12-02T03:56:38.344Z,17.97
2022-12-02T03:59:09.170Z,16.50
2022-12-02T04:01:37.682Z,16.33
2022-12-02T04:04:06.009Z,16.80
2022-12-02T04:06:35.130Z,18.50
2022-12-02T04:09:03.820Z,17.73
2022-12-02T04:11:32.476Z,16.70
2022-12-02T04:14:00.745Z,15.73
2022-12-02T04:16:30.683Z,16.70
2022-12-02T04:18:59.115Z,15.93
2022-12-02T04:21:27.318Z,16.97
2022-12-02T04:23:55.902Z,17.70
2022-12-02T04:26:24.358Z,15.13
2022-12-02T04:28:52.894Z,16.17
2022-12-02T04:31:21.467Z,15.10
2022-12-02T04:33:51.291Z,15.90
2022-12-02T04:36:19.763Z,15.53
2022-12-02T04:38:48.191Z,15.20
2022-12-02T04:41:16.730Z,15.30
2022-12-02T04:43:45.239Z,15.17
2022-12-02T04:46:13.454Z,16.70
2022-12-02T04:48:41.936Z,16.40
2022-12-02T04:51:12.231Z,14.93
2022-12-02T04:53:40.557Z,15.50
2022-12-02T04:56:09.303Z,16.33
2022-12-02T04:58:38.902Z,15.73
2022-12-02T05:01:07.496Z,15.67
2022-12-02T05:03:35.851Z,17.23
2022-12-02T05:06:04.554Z,17.70
2022-12-02T05:08:34.308Z,17.23
2022-12-02T05:11:04.568Z,16.10
2022-12-02T05:13:33.609Z,15.27
2022-12-02T05:16:02.499Z,15.87
2022-12-02T05:18:34.836Z,15.90
2022-12-02T05:21:03.220Z,16.23
2022-12-02T05:23:31.671Z,14.83
2022-12-02T05:26:01.392Z,17.13
2022-12-02T05:28:30.129Z,15.37
2022-12-02T05:30:58.578Z,16.00
2022-12-02T05:33:27.175Z,16.50
2022-12-02T05:35:56.084Z,16.57
2022-12-02T05:38:24.342Z,16.43
2022-12-02T05:40:54.395Z,15.87
2022-12-02T05:43:26.149Z,15.63
2022-12-02T05:45:58.417Z,15.33
2022-12-02T05:48:27.214Z,15.00
2022-12-02T05:50:55.525Z,16.17
2022-12-02T05:53:25.730Z,16.43
2022-12-02T05:55:55.532Z,16.33
2022-12-02T05:58:26.878Z,15.47
2022-12-02T06:00:57.214Z,15.90
2022-12-02T06:03:26.215Z,16.00
2022-12-02T06:05:55.358Z,16.63
2022-12-02T06:08:26.712Z,16.20
2022-12-02T06:11:00.454Z,16.80
2022-12-02T06:13:32.731Z,16.20
2022-12-02T06:16:01.971Z,18.13
2022-12-02T06:18:34.929Z,16.53
2022-12-02T06:21:05.885Z,16.77
2022-12-02T06:23:34.509Z,18.93
2022-12-02T06:26:03.339Z,18.47
2022-12-02T06:28:37.127Z,19.00
2022-12-02T06:31:17.297Z,19.80
2022-12-02T06:33:48.246Z,18.60
2022-12-02T06:36:21.531Z,17.77
2022-12-02T06:38:51.693Z,18.97
2022-12-02T06:41:23.702Z,17.93
2022-12-02T06:44:15.380Z,17.73
2022-12-02T06:46:43.911Z,16.40
2022-12-02T06:49:19.551Z,17.20
2022-12-02T06:51:48.334Z,16.90
2022-12-02T06:54:21.646Z,17.03
2022-12-02T06:56:51.883Z,17.07
2022-12-02T06:59:24.270Z,17.53
2022-12-02T07:01:56.838Z,16.90
2022-12-02T07:04:42.899Z,17.00
2022-12-02T07:07:20.738Z,15.33
2022-12-02T07:09:53.195Z,18.23
2022-12-02T07:12:25.262Z,17.23
2022-12-02T07:14:56.971Z,17.93
2022-12-02T07:17:28.893Z,17.50
2022-12-02T07:20:01.686Z,17.83
2022-12-02T07:22:36.190Z,16.50
2022-12-02T07:25:30.988Z,18.07
2022-12-02T07:27:59.673Z,16.27
2022-12-02T07:30:33.001Z,16.83
2022-12-02T07:33:03.283Z,17.33
2022-12-02T07:35:31.754Z,17.80
2022-12-02T07:38:01.890Z,17.57
2022-12-02T07:40:31.123Z,17.07
2022-12-02T07:43:05.238Z,17.03
2022-12-02T07:45:35.058Z,18.27
2022-12-02T07:48:03.395Z,18.50
2022-12-02T07:50:31.718Z,18.77
2022-12-02T07:53:00.439Z,17.17
2022-12-02T07:55:28.691Z,18.10
2022-12-02T07:57:57.650Z,17.90
2022-12-02T08:00:26.049Z,18.50
2022-12-02T08:02:56.308Z,19.90
2022-12-02T08:05:25.082Z,18.70
2022-12-02T08:07:53.461Z,21.10
2022-12-02T08:10:22.367Z,19.57
2022-12-02T08:12:51.111Z,21.70
2022-12-02T08:15:20.107Z,24.53
2022-12-02T08:17:48.561Z,22.20
2022-12-02T08:20:18.364Z,20.27
2022-12-02T08:22:46.946Z,21.63
2022-12-02T08:25:15.536Z,22.50
2022-12-02T08:27:45.508Z,25.37
2022-12-02T08:30:17.212Z,20.90
2022-12-02T08:32:46.634Z,19.87
2022-12-02T08:35:15.519Z,20.70
2022-12-02T08:37:48.597Z,20.43
2022-12-02T08:40:17.705Z,20.10
2022-12-02T08:42:45.997Z,21.40
2022-12-02T08:45:14.703Z,20.13
2022-12-02T08:47:43.900Z,19.83
2022-12-02T08:50:12.649Z,20.23
2022-12-02T08:52:41.600Z,41.13
2022-12-02T08:55:11.466Z,26.87
2022-12-02T08:57:39.795Z,26.10
2022-12-02T09:00:10.339Z,26.37
2022-12-02T09:02:38.973Z,22.00
2022-12-02T09:05:07.897Z,23.70
2022-12-02T09:07:36.811Z,19.50
2022-12-02T09:10:07.559Z,18.43
2022-12-02T09:12:37.531Z,19.37
2022-12-02T09:15:06.803Z,17.90
2022-12-02T09:17:35.162Z,21.80
2022-12-02T09:20:03.980Z,19.43
2022-12-02T09:22:32.455Z,18.57
2022-12-02T09:25:01.472Z,19.60
2022-12-02T09:27:30.416Z,18.00
2022-12-02T09:30:00.341Z,18.67
2022-12-02T09:32:28.722Z,18.97
2022-12-02T09:34:57.047Z,20.33
2022-12-02T09:37:25.506Z,19.77
2022-12-02T09:39:55.119Z,18.67
2022-12-02T09:42:24.483Z,18.60
2022-12-02T09:44:54.359Z,18.40
2022-12-02T09:47:25.545Z,18.80
2022-12-02T09:49:54.282Z,19.60
2022-12-02T09:52:26.291Z,24.40
2022-12-02T09:54:56.861Z,24.80
2022-12-02T09:57:29.333Z,22.43
2022-12-02T10:00:01.906Z,21.40
2022-12-02T10:02:50.847Z,21.20
2022-12-02T10:05:22.570Z,23.07
2022-12-02T10:07:52.487Z,22.23
2022-12-02T10:10:23.805Z,24.53
2022-12-02T10:12:52.109Z,23.20
2022-12-02T10:15:24.117Z,26.47
2022-12-02T10:17:56.118Z,22.73
2022-12-02T10:20:28.444Z,22.70
2022-12-02T10:23:14.951Z,23.10
2022-12-02T10:25:45.194Z,26.37
2022-12-02T10:28:23.665Z,23.17
2022-12-02T10:30:54.148Z,30.90
2022-12-02T10:33:29.239Z,27.60
2022-12-02T10:35:59.602Z,24.83
2022-12-02T10:38:34.612Z,28.20
2022-12-02T10:41:25.447Z,29.17
2022-12-02T10:44:13.126Z,26.27
2022-12-02T10:46:43.545Z,25.80
2022-12-02T10:49:35.712Z,25.77
2022-12-02T10:52:09.762Z,26.00
2022-12-02T10:54:43.775Z,25.00
2022-12-02T10:57:19.665Z,24.40
2022-12-02T10:59:48.000Z,24.53
2022-12-02T11:02:22.539Z,25.10
2022-12-02T11:04:52.886Z,26.10
2022-12-02T11:07:27.376Z,26.37
2022-12-02T11:09:57.457Z,26.47
2022-12-02T11:12:38.197Z,26.43
2022-12-02T11:15:30.240Z,24.13
2022-12-02T11:17:58.671Z,24.50
2022-12-02T11:20:35.462Z,24.37
2022-12-02T11:23:24.224Z,24.20
2022-12-02T11:26:12.129Z,24.87
2022-12-02T11:29:02.104Z,25.30
2022-12-02T11:31:30.684Z,26.10
2022-12-02T11:34:24.220Z,24.83
2022-12-02T11:37:43.523Z,24.77
2022-12-02T11:41:00.593Z,24.20
2022-12-02T11:43:56.129Z,23.50
2022-12-02T11:46:44.364Z,23.57
2022-12-02T11:49:36.159Z,26.07
2022-12-02T11:52:18.599Z,26.60
2022-12-02T11:54:51.132Z,25.27
2022-12-02T11:57:22.747Z,27.17
2022-12-02T11:59:53.909Z,29.20
2022-12-02T12:02:24.748Z,28.23
2022-12-02T12:05:04.867Z,30.63
2022-12-02T12:07:47.022Z,30.13
2022-12-02T12:10:40.518Z,28.00
2022-12-02T12:13:22.280Z,27.60
2022-12-02T12:15:57.943Z,28.37
2022-12-02T12:18:50.834Z,27.10
2022-12-02T12:21:46.019Z,29.57
2022-12-02T12:24:28.463Z,26.90
2022-12-02T12:26:57.945Z,30.20
2022-12-02T12:29:28.185Z,31.60
2022-12-02T12:31:58.074Z,26.80
2022-12-02T12:34:26.927Z,27.70
2022-12-02T12:36:55.354Z,28.77
2022-12-02T12:39:24.290Z,28.50
2022-12-02T12:42:01.423Z,31.23
2022-12-02T12:44:31.901Z,30.40
2022-12-02T12:47:05.134Z,29.73
2022-12-02T12:49:34.510Z,28.20
2022-12-02T12:52:03.762Z,29.63
2022-12-02T12:54:32.191Z,29.40
2022-12-02T12:57:00.704Z,30.57
2022-12-02T12:59:29.331Z,33.63
2022-12-02T13:01:57.829Z,33.37
2022-12-02T13:04:27.928Z,30.37
2022-12-02T13:06:56.139Z,31.77
2022-12-02T13:09:24.582Z,30.03
2022-12-02T13:11:52.830Z,30.97
2022-12-02T13:14:21.345Z,30.00
2022-12-02T13:16:50.108Z,29.50
2022-12-02T13:19:18.769Z,30.47
2022-12-02T13:21:51.013Z,31.80
2022-12-02T13:24:21.392Z,30.40
2022-12-02T13:26:49.764Z,29.97
2022-12-02T13:29:18.813Z,32.10
2022-12-02T13:31:47.278Z,37.53
2022-12-02T13:34:15.730Z,31.50
2022-12-02T13:36:44.101Z,31.87
2022-12-02T13:39:14.041Z,30.73
2022-12-02T13:41:43.009Z,30.37
2022-12-02T13:44:12.287Z,30.13
2022-12-02T13:46:40.596Z,31.53
2022-12-02T13:49:09.411Z,30.63
2022-12-02T13:51:37.731Z,32.83
2022-12-02T13:54:07.265Z,31.00
2022-12-02T13:56:37.496Z,29.90
2022-12-02T13:59:06.253Z,28.83
2022-12-02T14:01:35.569Z,30.57
2022-12-02T14:04:04.775Z,29.00
2022-12-02T14:06:33.377Z,28.67
2022-12-02T14:09:02.249Z,27.57
2022-12-02T14:11:31.494Z,28.37
2022-12-02T14:14:01.381Z,28.03
2022-12-02T14:16:29.756Z,29.80
2022-12-02T14:18:58.386Z,28.93
2022-12-02T14:21:27.584Z,28.77
2022-12-02T14:23:56.566Z,26.80
2022-12-02T14:26:25.744Z,29.93
2022-12-02T14:28:54.231Z,28.40
2022-12-02T14:31:26.667Z,27.77
2022-12-02T14:34:13.109Z,28.23
2022-12-02T14:36:43.954Z,26.37
2022-12-02T14:39:13.723Z,27.83
2022-12-02T14:41:42.031Z,28.57
2022-12-02T14:44:10.534Z,28.70
2022-12-02T14:46:40.396Z,30.23
2022-12-02T14:49:38.453Z,30.57
2022-12-02T14:51:57.345Z,28.40
2022-12-02T14:54:25.807Z,27.10
2022-12-02T14:56:54.219Z,26.47
2022-12-02T14:59:22.535Z,27.07
2022-12-02T15:01:52.855Z,27.10
2022-12-02T15:04:21.316Z,27.97
2022-12-02T15:06:49.765Z,27.37
2022-12-02T15:09:18.032Z,28.23
2022-12-02T15:11:46.470Z,27.93
2022-12-02T15:14:14.728Z,25.90
2022-12-02T15:16:43.373Z,27.47
2022-12-02T15:19:13.296Z,26.13
2022-12-02T15:21:41.718Z,27.03
2022-12-02T15:24:12.240Z,29.90
2022-12-02T15:26:40.730Z,30.03
2022-12-02T15:29:10.200Z,24.20
2022-12-02T15:31:39.209Z,31.30
2022-12-02T15:34:07.564Z,30.93
2022-12-02T15:36:37.588Z,29.00
2022-12-02T15:39:06.102Z,28.27
2022-12-02T15:41:35.040Z,27.27
2022-12-02T15:44:03.451Z,29.63
2022-12-02T15:46:32.225Z,25.70
2022-12-02T15:49:00.554Z,27.93
2022-12-02T15:51:29.221Z,29.37
2022-12-02T15:53:59.037Z,27.50
2022-12-02T15:56:29.288Z,27.67
2022-12-02T15:58:57.584Z,26.30
2022-12-02T16:01:26.481Z,25.37
2022-12-02T16:03:55.119Z,29.53
2022-12-02T16:06:23.590Z,26.93
2022-12-02T16:08:55.816Z,27.87
2022-12-02T16:11:26.309Z,27.23
2022-12-02T16:13:54.558Z,27.63
2022-12-02T16:16:23.442Z,25.30
2022-12-02T16:18:52.048Z,25.17
2022-12-02T16:21:24.042Z,25.33
2022-12-02T16:23:52.296Z,26.10
2022-12-02T16:26:21.532Z,27.40
2022-12-02T16:28:51.216Z,25.63
2022-12-02T16:31:22.323Z,24.43
2022-12-02T16:33:51.545Z,26.80
2022-12-02T16:36:19.907Z,25.33
2022-12-02T16:38:48.335Z,27.57
2022-12-02T16:41:17.325Z,26.80
2022-12-02T16:43:45.880Z,28.33
2022-12-02T16:46:17.153Z,24.97
2022-12-02T16:48:45.812Z,26.33
2022-12-02T16:51:14.081Z,27.07
2022-12-02T16:53:42.483Z,25.47
2022-12-02T16:56:11.746Z,25.37
2022-12-02T16:58:41.141Z,24.33
2022-12-02T17:01:09.512Z,29.10
2022-12-02T17:03:39.432Z,31.53
2022-12-02T17:06:09.027Z,39.17
2022-12-02T17:08:37.997Z,31.73
2022-12-02T17:11:07.910Z,31.07
2022-12-02T17:13:36.454Z,26.67
2022-12-02T17:16:08.411Z,25.47
2022-12-02T17:18:36.663Z,27.07
2022-12-02T17:21:06.986Z,26.83
2022-12-02T17:23:35.309Z,26.07
2022-12-02T17:26:03.653Z,27.20
2022-12-02T17:28:31.876Z,27.30
2022-12-02T17:31:00.220Z,24.83
2022-12-02T17:33:28.702Z,24.97
2022-12-02T17:35:57.084Z,24.97
2022-12-02T17:38:27.000Z,24.57
2022-12-02T17:41:10.270Z,25.40
2022-12-02T17:43:42.595Z,27.30
2022-12-02T17:46:12.807Z,26.43
2022-12-02T17:48:42.972Z,25.40
2022-12-02T17:51:11.723Z,26.50
2022-12-02T17:53:41.855Z,25.07
2022-12-02T17:56:10.448Z,25.37
2022-12-02T17:58:38.923Z,27.73
2022-12-02T18:01:11.801Z,25.57
2022-12-02T18:03:41.836Z,25.23
2022-12-02T18:06:11.434Z,25.07
2022-12-02T18:08:41.269Z,24.83
2022-12-02T18:11:10.013Z,23.87
2022-12-02T18:13:39.665Z,24.17
2022-12-02T18:16:10.158Z,23.23
2022-12-02T18:18:38.655Z,24.10
2022-12-02T18:21:07.133Z,23.70
2022-12-02T18:23:35.582Z,22.27
2022-12-02T18:26:05.472Z,22.70
2022-12-02T18:28:33.901Z,22.63
2022-12-02T18:31:03.181Z,26.20
2022-12-02T18:33:32.000Z,25.03
2022-12-02T18:36:00.462Z,22.17
2022-12-02T18:38:28.861Z,23.17
2022-12-02T18:40:57.166Z,25.33
2022-12-02T18:43:29.735Z,25.53
2022-12-02T18:46:00.718Z,28.03
2022-12-02T18:48:29.487Z,29.30
2022-12-02T18:50:58.012Z,24.50
2022-12-02T18:53:26.827Z,23.80
2022-12-02T18:55:55.241Z,23.87
2022-12-02T18:58:23.953Z,23.97
2022-12-02T19:00:53.798Z,25.23
2022-12-02T19:03:22.158Z,27.17
2022-12-02T19:05:51.490Z,25.70
2022-12-02T19:08:19.912Z,23.33
2022-12-02T19:10:48.859Z,22.53
2022-12-02T19:13:17.310Z,24.40
2022-12-02T19:15:46.473Z,24.17
2022-12-02T19:18:16.196Z,22.40
2022-12-02T19:20:44.614Z,24.70
2022-12-02T19:23:12.967Z,23.00
2022-12-02T19:25:46.890Z,23.47
2022-12-02T19:28:18.208Z,24.73
2022-12-02T19:30:46.752Z,24.00
2022-12-02T19:33:17.377Z,23.57
2022-12-02T19:35:45.795Z,24.13
2022-12-02T19:38:15.612Z,24.07
2022-12-02T19:40:45.788Z,24.70
2022-12-02T19:43:14.829Z,24.37
2022-12-02T19:45:44.253Z,23.27
2022-12-02T19:48:12.695Z,24.70
2022-12-02T19:50:42.420Z,23.07
2022-12-02T19:53:11.410Z,24.00
2022-12-02T19:55:40.016Z,23.63
2022-12-02T19:58:09.036Z,23.60
2022-12-02T20:00:37.255Z,25.60
2022-12-02T20:03:05.708Z,25.83
2022-12-02T20:05:34.484Z,25.67
2022-12-02T20:08:04.206Z,24.67
2022-12-02T20:10:32.703Z,26.50
2022-12-02T20:13:00.941Z,23.97
2022-12-02T20:15:30.607Z,26.30
2022-12-02T20:17:59.046Z,26.13
2022-12-02T20:20:27.648Z,26.13
2022-12-02T20:22:55.998Z,26.47
2022-12-02T20:25:25.923Z,33.03
2022-12-02T20:27:54.829Z,29.40
2022-12-02T20:30:24.807Z,35.80
2022-12-02T20:32:53.060Z,34.27
2022-12-02T20:35:21.487Z,42.43
2022-12-02T20:37:49.705Z,36.83
2022-12-02T20:40:19.212Z,33.87
2022-12-02T20:42:49.292Z,41.30
2022-12-02T20:45:18.918Z,36.53
2022-12-02T20:47:47.680Z,34.03
2022-12-02T20:50:16.405Z,33.37
2022-12-02T20:52:51.365Z,32.83
2022-12-02T20:55:21.839Z,31.47
2022-12-02T20:57:51.524Z,28.40
2022-12-02T21:00:20.417Z,27.23
2022-12-02T21:02:48.732Z,25.83
2022-12-02T21:05:17.389Z,25.70
2022-12-02T21:07:45.877Z,24.57
2022-12-02T21:10:14.281Z,25.93
2022-12-02T21:12:43.881Z,24.97
2022-12-02T21:15:15.153Z,24.83
2022-12-02T21:17:44.760Z,26.67
2022-12-02T21:20:18.097Z,25.20
2022-12-02T21:22:47.450Z,24.67
2022-12-02T21:25:16.011Z,27.37
2022-12-02T21:27:44.606Z,25.33
2022-12-02T21:30:15.520Z,24.77
2022-12-02T21:32:44.249Z,24.93
2022-12-02T21:35:12.900Z,27.00
2022-12-02T21:37:46.357Z,26.17
2022-12-02T21:40:16.703Z,26.07
2022-12-02T21:42:45.158Z,25.20
2022-12-02T21:45:15.009Z,24.10
2022-12-02T21:47:43.263Z,24.00
2022-12-02T21:50:12.950Z,24.07
2022-12-02T21:52:42.232Z,25.43
2022-12-02T21:55:11.070Z,24.17
2022-12-02T21:57:39.647Z,24.33
2022-12-02T22:00:10.228Z,24.40
2022-12-02T22:02:41.141Z,26.10
2022-12-02T22:05:10.087Z,25.30
2022-12-02T22:07:44.757Z,25.40
2022-12-02T22:10:16.189Z,23.73
2022-12-02T22:12:45.164Z,25.87
2022-12-02T22:15:14.698Z,24.80
2022-12-02T22:17:44.755Z,25.00
2022-12-02T22:20:15.097Z,24.97
2022-12-02T22:22:43.898Z,27.00
2022-12-02T22:25:12.223Z,23.50
2022-12-02T22:27:41.441Z,25.17
2022-12-02T22:30:11.898Z,23.43
2022-12-02T22:32:41.513Z,25.67
2022-12-02T22:35:12.004Z,24.17
2022-12-02T22:37:40.970Z,24.43
2022-12-02T22:40:11.883Z,25.57
2022-12-02T22:42:40.905Z,24.57
2022-12-02T22:45:10.745Z,26.33
2022-12-02T22:47:39.277Z,23.43
2022-12-02T22:50:08.405Z,24.03
2022-12-02T22:52:38.301Z,24.40
2022-12-02T22:55:07.093Z,23.77
2022-12-02T22:57:35.424Z,25.67
2022-12-02T23:00:05.659Z,24.80
2022-12-02T23:02:34.026Z,23.83
2022-12-02T23:05:02.826Z,23.33
2022-12-02T23:07:31.218Z,23.57
2022-12-02T23:10:01.140Z,24.23
2022-12-02T23:12:29.519Z,22.97
2022-12-02T23:15:27.724Z,22.27
2022-12-02T23:17:46.595Z,23.27
2022-12-02T23:20:16.031Z,24.17
2022-12-02T23:22:44.607Z,23.43
2022-12-02T23:25:15.648Z,23.07
2022-12-02T23:27:44.664Z,22.67
2022-12-02T23:30:14.872Z,22.43
2022-12-02T23:32:43.545Z,24.00
2022-12-02T23:35:11.858Z,25.17
2022-12-02T23:37:42.522Z,24.63
2022-12-02T23:40:14.871Z,23.57
2022-12-02T23:42:43.723Z,24.00
2022-12-02T23:45:12.835Z,24.27
2022-12-02T23:47:41.370Z,24.20
2022-12-02T23:50:14.366Z,23.30
2022-12-02T23:52:43.151Z,24.00
2022-12-02T23:55:11.896Z,23.90
2022-12-02T23:57:41.752Z,23.87
